Cherry Grove, Minnesota
Current Conditions -  °F | °C
As of 10:35 PM on Friday 24 Oct 2014 (Local Time) from KFKA Reporting Station
Moderate Fog Moderate Fog  
Wind Chill: 56°   Ceiling: 100
Heat Index: 56°   Visibility: 0.25mi
Dew Point: 55°   Wind: 3mph
Humidity: 97%   Direction: 240°WSW
Pressure: 29.92"   Gusts: NA
Location:  43.662°N, 92.3356°W
Report Text: KFKA 250335Z AUTO 24003KT 1/4SM FG OVC001 14/13 A2992 RMK AO2 T01350130
Loading
Personal Weather Stations






























Interactive Weather Map
Tropical Storm Tracking
New forecast layout! Learn more

10-Day Weather Forecast

Advertisements
Track Severe Weather on mobile